HYS8814 HEGN-LRBV
Flight info
| Callsign | HYS8814 |
|---|---|
| Flight time | 3h 5m |
| Altitude | 36000 |
| Route | SOLOX1B SOLOX V603 GIDID T91 EMOVA L677 CVO A16 RASDA M855 KOMEZ DCT TOMBI UA16 EKSEN UL610 OSGED UL620 APSER UL610 YAA UA16 FENER UT264 TUDBU DCT ATBOG DCT OBCAS |
| Aircraft | A320/M-SDE3FGHIRWY/LB1 |
Departure
| Time | 2026-05-05 05:48 |
|---|---|
| Airport | Hurghada International Airport (HEGN) |
Arrival
| Time | 2026-05-05 08:53 |
|---|---|
| Airport | Brașov-Ghimbav International Airport (LRBV) |
| Time | Latitude | Longitude | Altitude | Speed | Heading |
|---|---|---|---|---|---|
| 2026-05-05 05:14 | 27.19009 | 33.80358 | 44 ft | 0 kts | 77° |
| 2026-05-05 05:33 | 27.19003 | 33.80334 | 41 ft | 4 kts | 63° |
| 2026-05-05 05:33 | 27.18987 | 33.80310 | 42 ft | 4 kts | 37° |
| 2026-05-05 05:33 | 27.18964 | 33.80298 | 43 ft | 4 kts | 360° |
| 2026-05-05 05:34 | 27.18954 | 33.80299 | 43 ft | 0 kts | 345° |
| 2026-05-05 05:37 | 27.18954 | 33.80298 | 43 ft | 0 kts | 345° |
| 2026-05-05 05:37 | 27.18963 | 33.80296 | 43 ft | 3 kts | 345° |
| 2026-05-05 05:37 | 27.18989 | 33.80288 | 43 ft | 5 kts | 345° |
| 2026-05-05 05:38 | 27.19034 | 33.80275 | 44 ft | 8 kts | 345° |
| 2026-05-05 05:38 | 27.19092 | 33.80258 | 44 ft | 9 kts | 345° |
| 2026-05-05 05:38 | 27.19158 | 33.80238 | 44 ft | 10 kts | 345° |
| 2026-05-05 05:38 | 27.19210 | 33.80191 | 44 ft | 11 kts | 277° |
| 2026-05-05 05:39 | 27.19192 | 33.80105 | 45 ft | 12 kts | 254° |
| 2026-05-05 05:39 | 27.19167 | 33.80009 | 45 ft | 13 kts | 255° |
| 2026-05-05 05:39 | 27.19143 | 33.79902 | 42 ft | 15 kts | 256° |
| 2026-05-05 05:39 | 27.19117 | 33.79787 | 46 ft | 16 kts | 255° |
| 2026-05-05 05:40 | 27.19089 | 33.79663 | 46 ft | 17 kts | 256° |
| 2026-05-05 05:40 | 27.19058 | 33.79527 | 43 ft | 19 kts | 256° |
| 2026-05-05 05:40 | 27.19026 | 33.79381 | 42 ft | 20 kts | 257° |
| 2026-05-05 05:40 | 27.18987 | 33.79231 | 45 ft | 18 kts | 255° |
| 2026-05-05 05:41 | 27.18960 | 33.79123 | 44 ft | 14 kts | 255° |
| 2026-05-05 05:41 | 27.18932 | 33.79021 | 43 ft | 10 kts | 239° |
| 2026-05-05 05:41 | 27.18863 | 33.79007 | 44 ft | 13 kts | 165° |
| 2026-05-05 05:41 | 27.18758 | 33.79038 | 44 ft | 18 kts | 165° |
| 2026-05-05 05:42 | 27.18618 | 33.79079 | 42 ft | 23 kts | 166° |
| 2026-05-05 05:42 | 27.18456 | 33.79127 | 42 ft | 24 kts | 165° |
| 2026-05-05 05:42 | 27.18291 | 33.79177 | 42 ft | 26 kts | 165° |
| 2026-05-05 05:42 | 27.18113 | 33.79228 | 41 ft | 27 kts | 165° |
| 2026-05-05 05:43 | 27.17926 | 33.79283 | 39 ft | 29 kts | 165° |
| 2026-05-05 05:43 | 27.17729 | 33.79340 | 36 ft | 28 kts | 165° |
| 2026-05-05 05:43 | 27.17546 | 33.79395 | 34 ft | 23 kts | 165° |
| 2026-05-05 05:43 | 27.17410 | 33.79434 | 36 ft | 20 kts | 165° |
| 2026-05-05 05:44 | 27.17275 | 33.79477 | 35 ft | 21 kts | 165° |
| 2026-05-05 05:44 | 27.17132 | 33.79520 | 34 ft | 22 kts | 165° |
| 2026-05-05 05:44 | 27.16979 | 33.79564 | 32 ft | 23 kts | 166° |
| 2026-05-05 05:44 | 27.16816 | 33.79611 | 32 ft | 25 kts | 165° |
| 2026-05-05 05:45 | 27.16643 | 33.79662 | 31 ft | 26 kts | 166° |
| 2026-05-05 05:45 | 27.16460 | 33.79714 | 31 ft | 28 kts | 166° |
| 2026-05-05 05:45 | 27.16271 | 33.79769 | 30 ft | 26 kts | 165° |
| 2026-05-05 05:45 | 27.16121 | 33.79816 | 29 ft | 18 kts | 164° |
| 2026-05-05 05:46 | 27.16025 | 33.79846 | 29 ft | 12 kts | 165° |
| 2026-05-05 05:46 | 27.15960 | 33.79844 | 29 ft | 10 kts | 212° |
| 2026-05-05 05:46 | 27.15928 | 33.79775 | 29 ft | 11 kts | 255° |
| 2026-05-05 05:46 | 27.15914 | 33.79705 | 29 ft | 6 kts | 270° |
| 2026-05-05 05:47 | 27.15947 | 33.79670 | 29 ft | 8 kts | 345° |
| 2026-05-05 05:47 | 27.16037 | 33.79643 | 30 ft | 32 kts | 345° |
| 2026-05-05 05:47 | 27.16464 | 33.79515 | 32 ft | 92 kts | 346° |
| 2026-05-05 05:47 | 27.17239 | 33.79288 | 36 ft | 136 kts | 345° |
| 2026-05-05 05:48 | 27.18276 | 33.78983 | 162 ft | 163 kts | 342° |
| 2026-05-05 05:48 | 27.19331 | 33.78678 | 853 ft | 156 kts | 343° |
| 2026-05-05 05:48 | 27.20396 | 33.78407 | 1449 ft | 157 kts | 344° |
| 2026-05-05 05:48 | 27.21455 | 33.78140 | 1966 ft | 163 kts | 343° |
| 2026-05-05 05:49 | 27.22626 | 33.77835 | 2164 ft | 184 kts | 343° |
| 2026-05-05 05:49 | 27.23950 | 33.77488 | 2335 ft | 207 kts | 344° |
| 2026-05-05 05:49 | 27.25432 | 33.77097 | 2594 ft | 230 kts | 343° |
| 2026-05-05 05:49 | 27.27035 | 33.76672 | 3190 ft | 243 kts | 344° |
| 2026-05-05 05:50 | 27.28759 | 33.76214 | 3544 ft | 267 kts | 344° |
| 2026-05-05 05:50 | 27.30649 | 33.75712 | 3878 ft | 289 kts | 345° |
| 2026-05-05 05:50 | 27.32641 | 33.75183 | 4511 ft | 298 kts | 345° |
| 2026-05-05 05:50 | 27.34709 | 33.74763 | 5175 ft | 306 kts | 354° |
| 2026-05-05 05:51 | 27.36854 | 33.74623 | 5859 ft | 312 kts | 354° |
| 2026-05-05 05:51 | 27.39037 | 33.74492 | 6514 ft | 317 kts | 353° |
| 2026-05-05 05:51 | 27.41263 | 33.74358 | 7081 ft | 324 kts | 353° |
| 2026-05-05 05:51 | 27.43539 | 33.74216 | 7679 ft | 331 kts | 353° |
| 2026-05-05 05:52 | 27.45854 | 33.74069 | 8317 ft | 335 kts | 353° |
| 2026-05-05 05:52 | 27.48201 | 33.73920 | 8955 ft | 340 kts | 352° |
| 2026-05-05 05:52 | 27.50577 | 33.73771 | 9554 ft | 345 kts | 352° |
| 2026-05-05 05:52 | 27.52993 | 33.73622 | 10127 ft | 350 kts | 352° |
| 2026-05-05 05:53 | 27.55437 | 33.73470 | 10691 ft | 354 kts | 351° |
| 2026-05-05 05:53 | 27.57855 | 33.73023 | 11248 ft | 351 kts | 339° |
| 2026-05-05 05:53 | 27.60095 | 33.72050 | 11801 ft | 349 kts | 328° |
| 2026-05-05 05:53 | 27.62129 | 33.70575 | 12364 ft | 347 kts | 317° |
| 2026-05-05 05:54 | 27.64008 | 33.68852 | 12943 ft | 350 kts | 317° |
| 2026-05-05 05:54 | 27.65908 | 33.67119 | 13543 ft | 352 kts | 317° |
| 2026-05-05 05:54 | 27.67823 | 33.65382 | 14112 ft | 354 kts | 316° |
| 2026-05-05 05:54 | 27.69751 | 33.63636 | 14625 ft | 356 kts | 316° |
| 2026-05-05 05:55 | 27.71688 | 33.61879 | 15143 ft | 358 kts | 316° |
| 2026-05-05 05:55 | 27.73632 | 33.60110 | 15650 ft | 360 kts | 316° |
| 2026-05-05 05:55 | 27.75583 | 33.58330 | 16162 ft | 362 kts | 315° |
| 2026-05-05 05:55 | 27.77543 | 33.56537 | 16666 ft | 364 kts | 315° |
| 2026-05-05 05:56 | 27.79516 | 33.54731 | 17186 ft | 366 kts | 315° |
| 2026-05-05 05:56 | 27.81502 | 33.52915 | 17710 ft | 368 kts | 315° |
| 2026-05-05 05:56 | 27.83497 | 33.51093 | 18236 ft | 370 kts | 315° |
| 2026-05-05 05:56 | 27.85505 | 33.49257 | 18719 ft | 372 kts | 315° |
| 2026-05-05 05:57 | 27.87522 | 33.47413 | 19195 ft | 374 kts | 315° |
| 2026-05-05 05:57 | 27.89550 | 33.45561 | 19667 ft | 376 kts | 315° |
| 2026-05-05 05:57 | 27.91592 | 33.43698 | 20127 ft | 378 kts | 314° |
| 2026-05-05 05:57 | 27.93639 | 33.41823 | 20569 ft | 380 kts | 314° |
| 2026-05-05 05:58 | 27.95696 | 33.39938 | 21012 ft | 382 kts | 314° |
| 2026-05-05 05:58 | 27.97762 | 33.38045 | 21432 ft | 383 kts | 314° |
| 2026-05-05 05:58 | 27.99843 | 33.36142 | 21855 ft | 385 kts | 314° |
| 2026-05-05 05:58 | 28.01930 | 33.34229 | 22259 ft | 387 kts | 314° |
| 2026-05-05 05:59 | 28.04028 | 33.32302 | 22663 ft | 389 kts | 314° |
| 2026-05-05 05:59 | 28.06132 | 33.30366 | 23064 ft | 391 kts | 314° |
| 2026-05-05 05:59 | 28.08247 | 33.28421 | 23456 ft | 393 kts | 314° |
| 2026-05-05 05:59 | 28.10346 | 33.26490 | 23816 ft | 395 kts | 314° |
| 2026-05-05 06:00 | 28.12479 | 33.24525 | 24142 ft | 396 kts | 314° |
| 2026-05-05 06:00 | 28.14623 | 33.22550 | 24463 ft | 398 kts | 313° |
| 2026-05-05 06:00 | 28.16774 | 33.20568 | 24773 ft | 399 kts | 313° |
| 2026-05-05 06:00 | 28.18932 | 33.18578 | 25118 ft | 401 kts | 314° |
| 2026-05-05 06:01 | 28.21096 | 33.16584 | 25430 ft | 402 kts | 314° |
| 2026-05-05 06:01 | 28.23273 | 33.14579 | 25766 ft | 403 kts | 314° |
| 2026-05-05 06:01 | 28.25455 | 33.12570 | 26089 ft | 405 kts | 314° |
| 2026-05-05 06:01 | 28.27649 | 33.10546 | 26405 ft | 407 kts | 314° |
| 2026-05-05 06:02 | 28.29843 | 33.08519 | 26770 ft | 407 kts | 314° |
| 2026-05-05 06:02 | 28.32031 | 33.06497 | 27233 ft | 405 kts | 314° |
| 2026-05-05 06:02 | 28.33476 | 33.05163 | 27517 ft | 404 kts | 313° |
| 2026-05-05 06:02 | 28.36381 | 33.02476 | 28122 ft | 402 kts | 313° |
| 2026-05-05 06:03 | 28.37817 | 33.01150 | 28420 ft | 401 kts | 313° |
| 2026-05-05 06:03 | 28.39977 | 32.99152 | 28867 ft | 399 kts | 313° |
| 2026-05-05 06:03 | 28.42126 | 32.97161 | 29318 ft | 398 kts | 313° |
| 2026-05-05 06:03 | 28.44267 | 32.95176 | 29777 ft | 396 kts | 313° |
| 2026-05-05 06:04 | 28.46397 | 32.93194 | 30224 ft | 395 kts | 312° |
| 2026-05-05 06:04 | 28.48522 | 32.91219 | 30598 ft | 394 kts | 312° |
| 2026-05-05 06:04 | 28.50639 | 32.89250 | 30988 ft | 393 kts | 312° |
| 2026-05-05 06:04 | 28.52754 | 32.87284 | 31371 ft | 392 kts | 312° |
| 2026-05-05 06:05 | 28.54860 | 32.85331 | 31742 ft | 391 kts | 312° |
| 2026-05-05 06:05 | 28.56966 | 32.83375 | 32113 ft | 390 kts | 312° |
| 2026-05-05 06:05 | 28.59065 | 32.81423 | 32473 ft | 389 kts | 312° |
| 2026-05-05 06:05 | 28.61158 | 32.79472 | 32836 ft | 389 kts | 312° |
| 2026-05-05 06:06 | 28.63248 | 32.77523 | 33198 ft | 388 kts | 312° |
| 2026-05-05 06:06 | 28.65334 | 32.75574 | 33548 ft | 388 kts | 312° |
| 2026-05-05 06:06 | 28.67389 | 32.73654 | 33903 ft | 387 kts | 311° |
| 2026-05-05 06:06 | 28.69467 | 32.71711 | 34223 ft | 387 kts | 311° |
| 2026-05-05 06:07 | 28.71575 | 32.69743 | 34504 ft | 386 kts | 311° |
| 2026-05-05 06:07 | 28.73650 | 32.67804 | 34779 ft | 385 kts | 311° |
| 2026-05-05 06:07 | 28.75721 | 32.65868 | 35052 ft | 385 kts | 311° |
| 2026-05-05 06:07 | 28.77762 | 32.63960 | 35317 ft | 384 kts | 311° |
| 2026-05-05 06:08 | 28.79830 | 32.62029 | 35575 ft | 384 kts | 311° |
| 2026-05-05 06:08 | 28.81892 | 32.60101 | 35831 ft | 383 kts | 311° |
| 2026-05-05 06:08 | 28.83951 | 32.58174 | 36083 ft | 384 kts | 311° |
| 2026-05-05 06:08 | 28.86025 | 32.56229 | 36111 ft | 389 kts | 311° |
| 2026-05-05 06:09 | 28.90254 | 32.52244 | 36104 ft | 399 kts | 311° |
| 2026-05-05 06:09 | 28.94558 | 32.48196 | 36110 ft | 402 kts | 311° |
| 2026-05-05 06:10 | 28.98884 | 32.44144 | 36111 ft | 402 kts | 311° |
| 2026-05-05 06:10 | 29.03199 | 32.40089 | 36111 ft | 402 kts | 311° |
| 2026-05-05 06:11 | 29.07512 | 32.36025 | 36116 ft | 402 kts | 311° |
| 2026-05-05 06:11 | 29.11836 | 32.31956 | 36143 ft | 402 kts | 311° |
| 2026-05-05 06:12 | 29.16118 | 32.27911 | 36136 ft | 402 kts | 311° |
| 2026-05-05 06:12 | 29.20427 | 32.23835 | 36133 ft | 402 kts | 311° |
| 2026-05-05 06:13 | 29.24734 | 32.19760 | 36131 ft | 401 kts | 311° |
| 2026-05-05 06:13 | 29.29036 | 32.15679 | 36132 ft | 401 kts | 311° |
| 2026-05-05 06:14 | 29.33346 | 32.11601 | 36129 ft | 401 kts | 311° |
| 2026-05-05 06:14 | 29.37642 | 32.07520 | 36130 ft | 401 kts | 311° |
| 2026-05-05 06:15 | 29.41935 | 32.03434 | 36141 ft | 401 kts | 312° |
| 2026-05-05 06:15 | 29.46226 | 31.99350 | 36139 ft | 401 kts | 312° |
| 2026-05-05 06:16 | 29.50514 | 31.95272 | 36127 ft | 399 kts | 312° |
| 2026-05-05 06:16 | 29.54770 | 31.91207 | 36116 ft | 398 kts | 312° |
| 2026-05-05 06:17 | 29.59025 | 31.87143 | 36113 ft | 398 kts | 312° |
| 2026-05-05 06:17 | 29.63253 | 31.83100 | 36113 ft | 398 kts | 312° |
| 2026-05-05 06:18 | 29.67513 | 31.79017 | 36122 ft | 399 kts | 312° |
| 2026-05-05 06:18 | 29.71773 | 31.74935 | 36125 ft | 399 kts | 313° |
| 2026-05-05 06:19 | 29.76032 | 31.70855 | 36120 ft | 398 kts | 313° |
| 2026-05-05 06:19 | 29.80293 | 31.66767 | 36121 ft | 398 kts | 312° |
| 2026-05-05 06:20 | 29.84545 | 31.62675 | 36123 ft | 397 kts | 313° |
| 2026-05-05 06:20 | 29.88782 | 31.58592 | 36110 ft | 397 kts | 313° |
| 2026-05-05 06:21 | 29.93019 | 31.54512 | 36114 ft | 397 kts | 313° |
| 2026-05-05 06:21 | 29.97235 | 31.50444 | 36124 ft | 398 kts | 313° |
| 2026-05-05 06:22 | 30.01472 | 31.46355 | 36129 ft | 397 kts | 313° |
| 2026-05-05 06:22 | 30.05705 | 31.42257 | 36130 ft | 397 kts | 313° |
| 2026-05-05 06:23 | 30.10507 | 31.38919 | 36126 ft | 416 kts | 332° |
| 2026-05-05 06:23 | 30.13341 | 31.38069 | 36125 ft | 428 kts | 341° |
| 2026-05-05 06:23 | 30.16289 | 31.37542 | 36124 ft | 428 kts | 341° |
| 2026-05-05 06:24 | 30.22159 | 31.36483 | 36119 ft | 426 kts | 341° |
| 2026-05-05 06:24 | 30.28025 | 31.35407 | 36100 ft | 426 kts | 341° |
| 2026-05-05 06:25 | 30.33885 | 31.34322 | 36100 ft | 427 kts | 341° |
| 2026-05-05 06:25 | 30.39714 | 31.33251 | 36164 ft | 427 kts | 341° |
| 2026-05-05 06:26 | 30.45552 | 31.32185 | 36093 ft | 423 kts | 341° |
| 2026-05-05 06:26 | 30.51375 | 31.31114 | 36088 ft | 424 kts | 341° |
| 2026-05-05 06:27 | 30.60129 | 31.29499 | 36086 ft | 425 kts | 341° |
| 2026-05-05 06:28 | 30.65964 | 31.28423 | 36125 ft | 425 kts | 341° |
| 2026-05-05 06:28 | 30.71808 | 31.27347 | 36115 ft | 425 kts | 341° |
| 2026-05-05 06:29 | 30.77660 | 31.26267 | 36111 ft | 426 kts | 341° |
| 2026-05-05 06:29 | 30.83520 | 31.25186 | 36107 ft | 426 kts | 341° |
| 2026-05-05 06:30 | 30.89376 | 31.24104 | 36118 ft | 426 kts | 341° |
| 2026-05-05 06:30 | 30.95210 | 31.23024 | 36089 ft | 423 kts | 341° |
| 2026-05-05 06:31 | 31.00985 | 31.21953 | 36088 ft | 423 kts | 341° |
| 2026-05-05 06:31 | 31.06802 | 31.20874 | 36089 ft | 424 kts | 341° |
| 2026-05-05 06:32 | 31.12628 | 31.19784 | 36089 ft | 424 kts | 341° |
| 2026-05-05 06:32 | 31.18460 | 31.18691 | 36097 ft | 425 kts | 342° |
| 2026-05-05 06:33 | 31.24305 | 31.17609 | 36092 ft | 425 kts | 342° |
| 2026-05-05 06:33 | 31.30146 | 31.16514 | 36091 ft | 425 kts | 342° |
| 2026-05-05 06:34 | 31.35999 | 31.15412 | 36090 ft | 426 kts | 342° |
| 2026-05-05 06:34 | 31.41817 | 31.14320 | 36122 ft | 426 kts | 342° |
| 2026-05-05 06:35 | 31.47675 | 31.13233 | 36109 ft | 427 kts | 342° |
| 2026-05-05 06:35 | 31.53539 | 31.12150 | 36101 ft | 428 kts | 343° |
| 2026-05-05 06:36 | 31.59489 | 31.11375 | 36093 ft | 432 kts | 346° |
| 2026-05-05 06:36 | 31.65493 | 31.10833 | 36133 ft | 433 kts | 347° |
| 2026-05-05 06:37 | 31.71483 | 31.10277 | 36085 ft | 431 kts | 347° |
| 2026-05-05 06:37 | 31.77464 | 31.09643 | 36081 ft | 431 kts | 347° |
| 2026-05-05 06:38 | 31.83445 | 31.08984 | 36079 ft | 432 kts | 347° |
| 2026-05-05 06:38 | 31.89393 | 31.08329 | 36082 ft | 432 kts | 347° |
| 2026-05-05 06:39 | 31.95381 | 31.07679 | 36081 ft | 432 kts | 347° |
| 2026-05-05 06:39 | 32.01375 | 31.07039 | 36086 ft | 433 kts | 347° |
| 2026-05-05 06:40 | 32.07370 | 31.06397 | 36088 ft | 432 kts | 347° |
| 2026-05-05 06:40 | 32.13366 | 31.05740 | 36109 ft | 432 kts | 347° |
| 2026-05-05 06:41 | 32.19356 | 31.05078 | 36103 ft | 432 kts | 347° |
| 2026-05-05 06:41 | 32.25348 | 31.04414 | 36092 ft | 432 kts | 347° |
| 2026-05-05 06:42 | 32.31340 | 31.03752 | 36086 ft | 432 kts | 347° |
| 2026-05-05 06:42 | 32.37332 | 31.03091 | 36083 ft | 433 kts | 347° |
| 2026-05-05 06:43 | 32.43321 | 31.02430 | 36073 ft | 431 kts | 347° |
| 2026-05-05 06:43 | 32.49249 | 31.01776 | 36069 ft | 431 kts | 347° |
| 2026-05-05 06:44 | 32.55260 | 31.01111 | 36077 ft | 431 kts | 347° |
| 2026-05-05 06:44 | 32.61193 | 31.00450 | 36072 ft | 431 kts | 347° |
| 2026-05-05 06:45 | 32.67167 | 30.99787 | 36085 ft | 431 kts | 348° |
| 2026-05-05 06:45 | 32.73145 | 30.99121 | 36076 ft | 431 kts | 347° |
| 2026-05-05 06:46 | 32.79116 | 30.98448 | 36068 ft | 431 kts | 347° |
| 2026-05-05 06:46 | 32.85088 | 30.97782 | 36059 ft | 431 kts | 347° |
| 2026-05-05 06:47 | 32.91052 | 30.97115 | 36058 ft | 430 kts | 348° |
| 2026-05-05 06:47 | 32.97013 | 30.96449 | 36052 ft | 430 kts | 348° |
| 2026-05-05 06:48 | 33.02970 | 30.95789 | 36056 ft | 430 kts | 348° |
| 2026-05-05 06:48 | 33.08930 | 30.95124 | 36056 ft | 430 kts | 348° |
| 2026-05-05 06:49 | 33.14914 | 30.94653 | 36065 ft | 432 kts | 352° |
| 2026-05-05 06:49 | 33.20923 | 30.94496 | 36059 ft | 432 kts | 353° |
| 2026-05-05 06:50 | 33.26925 | 30.94368 | 36054 ft | 431 kts | 353° |
| 2026-05-05 06:50 | 33.32876 | 30.94169 | 36073 ft | 430 kts | 352° |
| 2026-05-05 06:51 | 33.38852 | 30.93923 | 36059 ft | 430 kts | 352° |
| 2026-05-05 06:51 | 33.44832 | 30.93681 | 36052 ft | 430 kts | 352° |
| 2026-05-05 06:52 | 33.50810 | 30.93456 | 36048 ft | 430 kts | 352° |
| 2026-05-05 06:52 | 33.56789 | 30.93240 | 36065 ft | 430 kts | 352° |
| 2026-05-05 06:53 | 33.62750 | 30.93012 | 36039 ft | 428 kts | 352° |
| 2026-05-05 06:53 | 33.67702 | 30.92822 | 36038 ft | 428 kts | 352° |
| 2026-05-05 06:54 | 33.73672 | 30.92603 | 36038 ft | 429 kts | 352° |
| 2026-05-05 06:54 | 33.79636 | 30.92376 | 36053 ft | 429 kts | 352° |
| 2026-05-05 06:55 | 33.85605 | 30.92147 | 36036 ft | 429 kts | 352° |
| 2026-05-05 06:55 | 33.91523 | 30.91914 | 36032 ft | 429 kts | 352° |
| 2026-05-05 06:56 | 33.97489 | 30.91680 | 36028 ft | 428 kts | 352° |
| 2026-05-05 06:56 | 34.03439 | 30.91356 | 36043 ft | 428 kts | 352° |
| 2026-05-05 06:57 | 34.09384 | 30.90999 | 36034 ft | 427 kts | 352° |
| 2026-05-05 06:57 | 34.15314 | 30.90663 | 36028 ft | 427 kts | 352° |
| 2026-05-05 06:58 | 34.21250 | 30.90339 | 36020 ft | 426 kts | 352° |
| 2026-05-05 06:58 | 34.27178 | 30.90026 | 36018 ft | 426 kts | 352° |
| 2026-05-05 06:59 | 34.33072 | 30.89775 | 36017 ft | 427 kts | 353° |
| 2026-05-05 06:59 | 34.39009 | 30.89548 | 36018 ft | 427 kts | 353° |
| 2026-05-05 07:00 | 34.44942 | 30.89304 | 36017 ft | 427 kts | 352° |
| 2026-05-05 07:00 | 34.50874 | 30.89052 | 36037 ft | 426 kts | 353° |
| 2026-05-05 07:01 | 34.56783 | 30.88802 | 36028 ft | 424 kts | 353° |
| 2026-05-05 07:01 | 34.62686 | 30.88552 | 36022 ft | 423 kts | 353° |
| 2026-05-05 07:02 | 34.68570 | 30.88303 | 36013 ft | 423 kts | 353° |
| 2026-05-05 07:02 | 34.74444 | 30.88048 | 36025 ft | 422 kts | 353° |
| 2026-05-05 07:03 | 34.80319 | 30.87798 | 36010 ft | 422 kts | 353° |
| 2026-05-05 07:03 | 34.86190 | 30.87550 | 36010 ft | 422 kts | 353° |
| 2026-05-05 07:04 | 34.92027 | 30.87296 | 36030 ft | 422 kts | 353° |
| 2026-05-05 07:04 | 34.97884 | 30.87040 | 36016 ft | 421 kts | 353° |
| 2026-05-05 07:05 | 35.03742 | 30.86795 | 36012 ft | 421 kts | 353° |
| 2026-05-05 07:05 | 35.09591 | 30.86543 | 36008 ft | 420 kts | 353° |
| 2026-05-05 07:06 | 35.15427 | 30.86296 | 36019 ft | 420 kts | 353° |
| 2026-05-05 07:06 | 35.21263 | 30.86048 | 36012 ft | 420 kts | 353° |
| 2026-05-05 07:07 | 35.27103 | 30.85788 | 36010 ft | 420 kts | 353° |
| 2026-05-05 07:07 | 35.32941 | 30.85532 | 36008 ft | 420 kts | 353° |
| 2026-05-05 07:08 | 35.38777 | 30.85284 | 36021 ft | 420 kts | 353° |
| 2026-05-05 07:08 | 35.44618 | 30.85035 | 36014 ft | 420 kts | 353° |
| 2026-05-05 07:09 | 35.50455 | 30.84785 | 36007 ft | 419 kts | 353° |
| 2026-05-05 07:09 | 35.56253 | 30.84530 | 36004 ft | 419 kts | 353° |
| 2026-05-05 07:10 | 35.62087 | 30.84282 | 36012 ft | 419 kts | 353° |
| 2026-05-05 07:10 | 35.67914 | 30.84023 | 36005 ft | 419 kts | 353° |
| 2026-05-05 07:11 | 35.73746 | 30.83763 | 36003 ft | 419 kts | 353° |
| 2026-05-05 07:11 | 35.79580 | 30.83506 | 36002 ft | 419 kts | 353° |
| 2026-05-05 07:12 | 35.85414 | 30.83254 | 36020 ft | 419 kts | 354° |
| 2026-05-05 07:12 | 35.91249 | 30.83006 | 36012 ft | 419 kts | 354° |
| 2026-05-05 07:13 | 35.97076 | 30.82746 | 36006 ft | 419 kts | 353° |
| 2026-05-05 07:13 | 36.02902 | 30.82485 | 36014 ft | 419 kts | 354° |
| 2026-05-05 07:14 | 36.08728 | 30.82250 | 36008 ft | 418 kts | 354° |
| 2026-05-05 07:14 | 36.14549 | 30.82070 | 36005 ft | 418 kts | 354° |
| 2026-05-05 07:15 | 36.20369 | 30.81900 | 36002 ft | 418 kts | 354° |
| 2026-05-05 07:15 | 36.26153 | 30.81713 | 36022 ft | 418 kts | 354° |
| 2026-05-05 07:16 | 36.31962 | 30.81510 | 36009 ft | 417 kts | 354° |
| 2026-05-05 07:16 | 36.37760 | 30.81307 | 36006 ft | 416 kts | 354° |
| 2026-05-05 07:17 | 36.43548 | 30.81116 | 35993 ft | 416 kts | 354° |
| 2026-05-05 07:17 | 36.49324 | 30.80930 | 35999 ft | 415 kts | 354° |
| 2026-05-05 07:18 | 36.55099 | 30.80736 | 35985 ft | 415 kts | 354° |
| 2026-05-05 07:18 | 36.60874 | 30.80528 | 35994 ft | 415 kts | 354° |
| 2026-05-05 07:19 | 36.66643 | 30.80319 | 35998 ft | 415 kts | 354° |
| 2026-05-05 07:19 | 36.72417 | 30.80120 | 35998 ft | 414 kts | 355° |
| 2026-05-05 07:20 | 36.78178 | 30.79925 | 35998 ft | 413 kts | 354° |
| 2026-05-05 07:20 | 36.83925 | 30.79726 | 35992 ft | 413 kts | 354° |
| 2026-05-05 07:21 | 36.89667 | 30.79529 | 36010 ft | 412 kts | 355° |
| 2026-05-05 07:21 | 36.95352 | 30.79195 | 36001 ft | 410 kts | 352° |
| 2026-05-05 07:22 | 37.01023 | 30.78464 | 36000 ft | 409 kts | 350° |
| 2026-05-05 07:22 | 37.06688 | 30.77644 | 35995 ft | 409 kts | 351° |
| 2026-05-05 07:23 | 37.12357 | 30.76894 | 36000 ft | 409 kts | 351° |
| 2026-05-05 07:23 | 37.18019 | 30.76201 | 35992 ft | 409 kts | 352° |
| 2026-05-05 07:24 | 37.23682 | 30.75506 | 35985 ft | 408 kts | 351° |
| 2026-05-05 07:24 | 37.29297 | 30.74805 | 35981 ft | 408 kts | 351° |
| 2026-05-05 07:25 | 37.34958 | 30.74097 | 35987 ft | 408 kts | 352° |
| 2026-05-05 07:25 | 37.40612 | 30.73390 | 35991 ft | 408 kts | 352° |
| 2026-05-05 07:26 | 37.46254 | 30.72630 | 35994 ft | 408 kts | 351° |
| 2026-05-05 07:26 | 37.51892 | 30.71790 | 35995 ft | 408 kts | 351° |
| 2026-05-05 07:27 | 37.57519 | 30.70944 | 36008 ft | 407 kts | 351° |
| 2026-05-05 07:27 | 37.63158 | 30.70175 | 36011 ft | 408 kts | 352° |
| 2026-05-05 07:28 | 37.68820 | 30.69505 | 36016 ft | 408 kts | 352° |
| 2026-05-05 07:28 | 37.74435 | 30.68835 | 36033 ft | 408 kts | 352° |
| 2026-05-05 07:29 | 37.80099 | 30.68139 | 36038 ft | 408 kts | 352° |
| 2026-05-05 07:29 | 37.85753 | 30.67433 | 36040 ft | 408 kts | 352° |
| 2026-05-05 07:30 | 37.91240 | 30.65837 | 36044 ft | 405 kts | 336° |
| 2026-05-05 07:30 | 37.98999 | 30.61577 | 36028 ft | 405 kts | 336° |
| 2026-05-05 07:31 | 38.04157 | 30.58763 | 36019 ft | 406 kts | 336° |
| 2026-05-05 07:31 | 38.09353 | 30.55917 | 36027 ft | 407 kts | 336° |
| 2026-05-05 07:32 | 38.14547 | 30.53073 | 36028 ft | 407 kts | 336° |
| 2026-05-05 07:32 | 38.19766 | 30.50206 | 36040 ft | 408 kts | 336° |
| 2026-05-05 07:33 | 38.24977 | 30.47332 | 36051 ft | 408 kts | 336° |
| 2026-05-05 07:33 | 38.30197 | 30.44453 | 36050 ft | 409 kts | 337° |
| 2026-05-05 07:34 | 38.35423 | 30.41577 | 36057 ft | 409 kts | 336° |
| 2026-05-05 07:34 | 38.40645 | 30.38692 | 36039 ft | 409 kts | 336° |
| 2026-05-05 07:35 | 38.45873 | 30.35798 | 36061 ft | 409 kts | 336° |
| 2026-05-05 07:35 | 38.51097 | 30.32904 | 36061 ft | 409 kts | 336° |
| 2026-05-05 07:36 | 38.56288 | 30.30017 | 36059 ft | 409 kts | 336° |
| 2026-05-05 07:36 | 38.61514 | 30.27119 | 36063 ft | 409 kts | 337° |
| 2026-05-05 07:37 | 38.66745 | 30.24218 | 36062 ft | 409 kts | 336° |
| 2026-05-05 07:37 | 38.71969 | 30.21306 | 36062 ft | 409 kts | 336° |
| 2026-05-05 07:38 | 38.77160 | 30.18404 | 36067 ft | 409 kts | 336° |
| 2026-05-05 07:38 | 38.82379 | 30.15482 | 36064 ft | 409 kts | 336° |
| 2026-05-05 07:39 | 38.87604 | 30.12558 | 36066 ft | 410 kts | 336° |
| 2026-05-05 07:39 | 38.92831 | 30.09631 | 36043 ft | 410 kts | 336° |
| 2026-05-05 07:40 | 38.98070 | 30.06701 | 36047 ft | 411 kts | 336° |
| 2026-05-05 07:40 | 39.03311 | 30.03748 | 36051 ft | 412 kts | 336° |
| 2026-05-05 07:41 | 39.08559 | 30.00778 | 36054 ft | 412 kts | 336° |
| 2026-05-05 07:41 | 39.13818 | 29.97812 | 36062 ft | 413 kts | 336° |
| 2026-05-05 07:42 | 39.18189 | 29.95343 | 36066 ft | 413 kts | 336° |
| 2026-05-05 07:42 | 39.23462 | 29.92357 | 36067 ft | 414 kts | 336° |
| 2026-05-05 07:43 | 39.28733 | 29.89363 | 36066 ft | 414 kts | 336° |
| 2026-05-05 07:43 | 39.34015 | 29.86372 | 36070 ft | 414 kts | 336° |
| 2026-05-05 07:44 | 39.39293 | 29.83380 | 36068 ft | 414 kts | 336° |
| 2026-05-05 07:44 | 39.44553 | 29.80424 | 36053 ft | 415 kts | 336° |
| 2026-05-05 07:45 | 39.49867 | 29.77447 | 36056 ft | 416 kts | 336° |
| 2026-05-05 07:45 | 39.55184 | 29.74461 | 36059 ft | 417 kts | 336° |
| 2026-05-05 07:46 | 39.60505 | 29.71459 | 36065 ft | 417 kts | 336° |
| 2026-05-05 07:46 | 39.65834 | 29.68453 | 36074 ft | 418 kts | 336° |
| 2026-05-05 07:47 | 39.71178 | 29.65437 | 36079 ft | 418 kts | 336° |
| 2026-05-05 07:47 | 39.76517 | 29.62410 | 36081 ft | 419 kts | 336° |
| 2026-05-05 07:48 | 39.81862 | 29.59381 | 36088 ft | 419 kts | 336° |
| 2026-05-05 07:48 | 39.87208 | 29.56346 | 36093 ft | 419 kts | 336° |
| 2026-05-05 07:49 | 39.92558 | 29.53296 | 36085 ft | 420 kts | 336° |
| 2026-05-05 07:49 | 39.97856 | 29.50198 | 36089 ft | 420 kts | 335° |
| 2026-05-05 07:50 | 40.03173 | 29.47042 | 36091 ft | 420 kts | 335° |
| 2026-05-05 07:50 | 40.08502 | 29.43887 | 36089 ft | 420 kts | 335° |
| 2026-05-05 07:51 | 40.13838 | 29.40739 | 36084 ft | 421 kts | 335° |
| 2026-05-05 07:51 | 40.19186 | 29.37589 | 36082 ft | 421 kts | 335° |
| 2026-05-05 07:52 | 40.24498 | 29.34448 | 36082 ft | 422 kts | 335° |
| 2026-05-05 07:52 | 40.29842 | 29.31272 | 36086 ft | 422 kts | 335° |
| 2026-05-05 07:53 | 40.35200 | 29.28082 | 36096 ft | 423 kts | 335° |
| 2026-05-05 07:53 | 40.40553 | 29.24897 | 36093 ft | 423 kts | 335° |
| 2026-05-05 07:54 | 40.45905 | 29.21705 | 36085 ft | 423 kts | 335° |
| 2026-05-05 07:54 | 40.51016 | 29.17911 | 36086 ft | 422 kts | 328° |
| 2026-05-05 07:55 | 40.56017 | 29.13851 | 36088 ft | 422 kts | 328° |
| 2026-05-05 07:55 | 40.61022 | 29.09794 | 36094 ft | 422 kts | 328° |
| 2026-05-05 07:56 | 40.66031 | 29.05724 | 36091 ft | 423 kts | 328° |
| 2026-05-05 07:56 | 40.71035 | 29.01648 | 36090 ft | 423 kts | 328° |
| 2026-05-05 07:57 | 40.76037 | 28.97555 | 36089 ft | 423 kts | 328° |
| 2026-05-05 07:57 | 40.81040 | 28.93464 | 36087 ft | 423 kts | 328° |
| 2026-05-05 07:58 | 40.86013 | 28.89400 | 36089 ft | 423 kts | 328° |
| 2026-05-05 07:58 | 40.91023 | 28.85296 | 36088 ft | 423 kts | 328° |
| 2026-05-05 07:59 | 40.95955 | 28.81043 | 36093 ft | 424 kts | 320° |
| 2026-05-05 07:59 | 41.00137 | 28.75551 | 36089 ft | 424 kts | 314° |
| 2026-05-05 08:00 | 41.04203 | 28.69894 | 36092 ft | 424 kts | 314° |
| 2026-05-05 08:00 | 41.08285 | 28.64227 | 36089 ft | 424 kts | 314° |
| 2026-05-05 08:01 | 41.12357 | 28.58553 | 36093 ft | 424 kts | 314° |
| 2026-05-05 08:01 | 41.16400 | 28.52919 | 36099 ft | 424 kts | 314° |
| 2026-05-05 08:02 | 41.20466 | 28.47244 | 36098 ft | 424 kts | 314° |
| 2026-05-05 08:02 | 41.24529 | 28.41550 | 36099 ft | 424 kts | 314° |
| 2026-05-05 08:03 | 41.28669 | 28.35967 | 36092 ft | 424 kts | 320° |
| 2026-05-05 08:03 | 41.33565 | 28.31613 | 36094 ft | 424 kts | 327° |
| 2026-05-05 08:04 | 41.38559 | 28.27412 | 36090 ft | 424 kts | 327° |
| 2026-05-05 08:04 | 41.43546 | 28.23181 | 36080 ft | 425 kts | 327° |
| 2026-05-05 08:05 | 41.48535 | 28.18942 | 36079 ft | 425 kts | 327° |
| 2026-05-05 08:05 | 41.53528 | 28.14698 | 36080 ft | 426 kts | 327° |
| 2026-05-05 08:06 | 41.58491 | 28.10467 | 36077 ft | 426 kts | 327° |
| 2026-05-05 08:06 | 41.63489 | 28.06202 | 36079 ft | 426 kts | 327° |
| 2026-05-05 08:07 | 41.68497 | 28.01923 | 36072 ft | 427 kts | 327° |
| 2026-05-05 08:07 | 41.73514 | 27.97630 | 36072 ft | 427 kts | 327° |
| 2026-05-05 08:08 | 41.78521 | 27.93327 | 36074 ft | 428 kts | 327° |
| 2026-05-05 08:08 | 41.83531 | 27.89020 | 36072 ft | 428 kts | 327° |
| 2026-05-05 08:09 | 41.88517 | 27.84729 | 36086 ft | 428 kts | 327° |
| 2026-05-05 08:09 | 41.93546 | 27.80400 | 36069 ft | 429 kts | 327° |
| 2026-05-05 08:10 | 41.98782 | 27.76588 | 36077 ft | 429 kts | 338° |
| 2026-05-05 08:10 | 42.04351 | 27.73695 | 36078 ft | 429 kts | 338° |
| 2026-05-05 08:11 | 42.09929 | 27.70805 | 36085 ft | 429 kts | 338° |
| 2026-05-05 08:11 | 42.15509 | 27.67908 | 36071 ft | 430 kts | 338° |
| 2026-05-05 08:12 | 42.21086 | 27.64989 | 36072 ft | 429 kts | 338° |
| 2026-05-05 08:12 | 42.26627 | 27.62086 | 36091 ft | 429 kts | 338° |
| 2026-05-05 08:13 | 42.32200 | 27.59173 | 36107 ft | 429 kts | 339° |
| 2026-05-05 08:13 | 42.37768 | 27.56265 | 36099 ft | 429 kts | 339° |
| 2026-05-05 08:14 | 42.43335 | 27.53338 | 36087 ft | 429 kts | 339° |
| 2026-05-05 08:14 | 42.48891 | 27.50405 | 36105 ft | 428 kts | 339° |
| 2026-05-05 08:15 | 42.54448 | 27.47472 | 36097 ft | 428 kts | 339° |
| 2026-05-05 08:15 | 42.59999 | 27.44536 | 36096 ft | 428 kts | 339° |
| 2026-05-05 08:16 | 42.65554 | 27.41593 | 36081 ft | 429 kts | 339° |
| 2026-05-05 08:16 | 42.71116 | 27.38642 | 36098 ft | 429 kts | 339° |
| 2026-05-05 08:17 | 42.76631 | 27.35711 | 36097 ft | 428 kts | 339° |
| 2026-05-05 08:17 | 42.82179 | 27.32753 | 36090 ft | 428 kts | 339° |
| 2026-05-05 08:18 | 42.87727 | 27.29795 | 36082 ft | 428 kts | 339° |
| 2026-05-05 08:18 | 42.93279 | 27.26821 | 36066 ft | 428 kts | 339° |
| 2026-05-05 08:19 | 42.98822 | 27.23852 | 36083 ft | 428 kts | 339° |
| 2026-05-05 08:19 | 43.04379 | 27.20875 | 36080 ft | 428 kts | 339° |
| 2026-05-05 08:20 | 43.09922 | 27.17892 | 36085 ft | 429 kts | 339° |
| 2026-05-05 08:20 | 43.15482 | 27.14896 | 36076 ft | 429 kts | 339° |
| 2026-05-05 08:21 | 43.21030 | 27.11892 | 36079 ft | 429 kts | 339° |
| 2026-05-05 08:21 | 43.26580 | 27.08889 | 36078 ft | 429 kts | 339° |
| 2026-05-05 08:22 | 43.32136 | 27.05887 | 36080 ft | 429 kts | 339° |
| 2026-05-05 08:22 | 43.37669 | 27.02888 | 36071 ft | 430 kts | 339° |
| 2026-05-05 08:23 | 43.43230 | 26.99859 | 36064 ft | 430 kts | 339° |
| 2026-05-05 08:23 | 43.48790 | 26.96832 | 36073 ft | 430 kts | 339° |
| 2026-05-05 08:24 | 43.54350 | 26.93794 | 36075 ft | 430 kts | 339° |
| 2026-05-05 08:24 | 43.59893 | 26.90812 | 36076 ft | 430 kts | 340° |
| 2026-05-05 08:25 | 43.65492 | 26.87926 | 36075 ft | 430 kts | 340° |
| 2026-05-05 08:25 | 43.71097 | 26.85050 | 36078 ft | 430 kts | 340° |
| 2026-05-05 08:26 | 43.76695 | 26.82135 | 36076 ft | 430 kts | 340° |
| 2026-05-05 08:26 | 43.82294 | 26.79206 | 36075 ft | 430 kts | 340° |
| 2026-05-05 08:27 | 43.87900 | 26.76256 | 36079 ft | 430 kts | 340° |
| 2026-05-05 08:27 | 43.93465 | 26.73326 | 36080 ft | 430 kts | 340° |
| 2026-05-05 08:28 | 43.99075 | 26.70375 | 36072 ft | 431 kts | 340° |
| 2026-05-05 08:28 | 44.04683 | 26.67416 | 36076 ft | 431 kts | 340° |
| 2026-05-05 08:29 | 44.10260 | 26.64469 | 36080 ft | 431 kts | 340° |
| 2026-05-05 08:30 | 44.18634 | 26.60031 | 36088 ft | 431 kts | 340° |
| 2026-05-05 08:30 | 44.23337 | 26.57540 | 36085 ft | 431 kts | 340° |
| 2026-05-05 08:31 | 44.28914 | 26.54574 | 36086 ft | 432 kts | 340° |
| 2026-05-05 08:31 | 44.34524 | 26.51584 | 36085 ft | 432 kts | 340° |
| 2026-05-05 08:32 | 44.40148 | 26.48585 | 36087 ft | 432 kts | 340° |
| 2026-05-05 08:32 | 44.45763 | 26.45571 | 36087 ft | 432 kts | 340° |
| 2026-05-05 08:33 | 44.51372 | 26.42560 | 36066 ft | 426 kts | 340° |
| 2026-05-05 08:33 | 44.56866 | 26.39617 | 36070 ft | 421 kts | 340° |
| 2026-05-05 08:33 | 44.59596 | 26.38148 | 35862 ft | 418 kts | 340° |
| 2026-05-05 08:34 | 44.62306 | 26.36686 | 35318 ft | 419 kts | 340° |
| 2026-05-05 08:34 | 44.65035 | 26.35217 | 34736 ft | 419 kts | 340° |
| 2026-05-05 08:34 | 44.67757 | 26.33747 | 34178 ft | 420 kts | 340° |
| 2026-05-05 08:34 | 44.70450 | 26.32289 | 33542 ft | 420 kts | 340° |
| 2026-05-05 08:35 | 44.73181 | 26.30806 | 32890 ft | 420 kts | 340° |
| 2026-05-05 08:35 | 44.75904 | 26.29326 | 32260 ft | 420 kts | 340° |
| 2026-05-05 08:35 | 44.78632 | 26.27843 | 31627 ft | 419 kts | 341° |
| 2026-05-05 08:35 | 44.81352 | 26.26363 | 31022 ft | 418 kts | 341° |
| 2026-05-05 08:36 | 44.84059 | 26.24888 | 30437 ft | 417 kts | 341° |
| 2026-05-05 08:36 | 44.86761 | 26.23418 | 29802 ft | 415 kts | 341° |
| 2026-05-05 08:36 | 44.89450 | 26.21957 | 29115 ft | 413 kts | 341° |
| 2026-05-05 08:36 | 44.92129 | 26.20501 | 28448 ft | 411 kts | 341° |
| 2026-05-05 08:37 | 44.94789 | 26.19052 | 27797 ft | 409 kts | 341° |
| 2026-05-05 08:37 | 44.97439 | 26.17609 | 27166 ft | 407 kts | 341° |
| 2026-05-05 08:37 | 45.00075 | 26.16170 | 26542 ft | 405 kts | 341° |
| 2026-05-05 08:37 | 45.02700 | 26.14736 | 25935 ft | 403 kts | 341° |
| 2026-05-05 08:38 | 45.05306 | 26.13308 | 25325 ft | 400 kts | 341° |
| 2026-05-05 08:38 | 45.07894 | 26.11886 | 24743 ft | 398 kts | 341° |
| 2026-05-05 08:38 | 45.10471 | 26.10471 | 24167 ft | 396 kts | 341° |
| 2026-05-05 08:38 | 45.13037 | 26.09063 | 23608 ft | 394 kts | 341° |
| 2026-05-05 08:39 | 45.15593 | 26.07659 | 22942 ft | 393 kts | 341° |
| 2026-05-05 08:39 | 45.18133 | 26.06263 | 22303 ft | 391 kts | 341° |
| 2026-05-05 08:39 | 45.20635 | 26.04885 | 21674 ft | 390 kts | 341° |
| 2026-05-05 08:39 | 45.23156 | 26.03495 | 21052 ft | 388 kts | 341° |
| 2026-05-05 08:40 | 45.25674 | 26.02106 | 20441 ft | 387 kts | 341° |
| 2026-05-05 08:40 | 45.28175 | 26.00721 | 19836 ft | 383 kts | 341° |
| 2026-05-05 08:40 | 45.30609 | 25.99367 | 19249 ft | 369 kts | 341° |
| 2026-05-05 08:40 | 45.32959 | 25.98058 | 18697 ft | 354 kts | 342° |
| 2026-05-05 08:41 | 45.35206 | 25.96808 | 18140 ft | 340 kts | 342° |
| 2026-05-05 08:41 | 45.37378 | 25.95600 | 17559 ft | 328 kts | 342° |
| 2026-05-05 08:41 | 45.39476 | 25.94437 | 16984 ft | 318 kts | 342° |
| 2026-05-05 08:41 | 45.41512 | 25.93310 | 16420 ft | 311 kts | 342° |
| 2026-05-05 08:42 | 45.43510 | 25.92204 | 15849 ft | 305 kts | 343° |
| 2026-05-05 08:42 | 45.45469 | 25.91117 | 15310 ft | 300 kts | 343° |
| 2026-05-05 08:42 | 45.47399 | 25.90046 | 14773 ft | 296 kts | 343° |
| 2026-05-05 08:42 | 45.49328 | 25.88976 | 14242 ft | 300 kts | 342° |
| 2026-05-05 08:43 | 45.51284 | 25.87892 | 13701 ft | 304 kts | 342° |
| 2026-05-05 08:43 | 45.53269 | 25.86787 | 13111 ft | 308 kts | 342° |
| 2026-05-05 08:43 | 45.55279 | 25.85667 | 12534 ft | 312 kts | 342° |
| 2026-05-05 08:43 | 45.57224 | 25.84445 | 11969 ft | 308 kts | 333° |
| 2026-05-05 08:44 | 45.58855 | 25.82492 | 11424 ft | 308 kts | 314° |
| 2026-05-05 08:44 | 45.60265 | 25.80245 | 10866 ft | 298 kts | 326° |
| 2026-05-05 08:44 | 45.62104 | 25.79132 | 10321 ft | 284 kts | 358° |
| 2026-05-05 08:44 | 45.63980 | 25.79612 | 9782 ft | 274 kts | 30° |
| 2026-05-05 08:45 | 45.65522 | 25.81166 | 9206 ft | 271 kts | 36° |
| 2026-05-05 08:45 | 45.67157 | 25.82480 | 8636 ft | 271 kts | 22° |
| 2026-05-05 08:45 | 45.68980 | 25.83131 | 8072 ft | 271 kts | 8° |
| 2026-05-05 08:45 | 45.70855 | 25.83235 | 7538 ft | 269 kts | 359° |
| 2026-05-05 08:46 | 45.72720 | 25.83023 | 6992 ft | 269 kts | 355° |
| 2026-05-05 08:46 | 45.74566 | 25.82606 | 6462 ft | 267 kts | 351° |
| 2026-05-05 08:46 | 45.76371 | 25.82007 | 6060 ft | 262 kts | 346° |
| 2026-05-05 08:46 | 45.78060 | 25.81248 | 5886 ft | 247 kts | 342° |
| 2026-05-05 08:47 | 45.79631 | 25.80349 | 5691 ft | 241 kts | 338° |
| 2026-05-05 08:47 | 45.81131 | 25.79322 | 5528 ft | 238 kts | 333° |
| 2026-05-05 08:47 | 45.82556 | 25.78131 | 5355 ft | 236 kts | 328° |
| 2026-05-05 08:47 | 45.83897 | 25.76779 | 5175 ft | 235 kts | 324° |
| 2026-05-05 08:48 | 45.85125 | 25.75320 | 5009 ft | 230 kts | 319° |
| 2026-05-05 08:48 | 45.86174 | 25.73628 | 4845 ft | 229 kts | 300° |
| 2026-05-05 08:48 | 45.86584 | 25.71443 | 4638 ft | 227 kts | 270° |
| 2026-05-05 08:48 | 45.86213 | 25.69286 | 4474 ft | 223 kts | 241° |
| 2026-05-05 08:49 | 45.85191 | 25.67654 | 4308 ft | 221 kts | 218° |
| 2026-05-05 08:49 | 45.83951 | 25.66344 | 4122 ft | 220 kts | 216° |
| 2026-05-05 08:49 | 45.82725 | 25.65073 | 3950 ft | 215 kts | 216° |
| 2026-05-05 08:49 | 45.81548 | 25.63839 | 3844 ft | 203 kts | 217° |
| 2026-05-05 08:50 | 45.80450 | 25.62682 | 3788 ft | 187 kts | 217° |
| 2026-05-05 08:50 | 45.79444 | 25.61623 | 3621 ft | 172 kts | 217° |
| 2026-05-05 08:50 | 45.78533 | 25.60663 | 3438 ft | 155 kts | 217° |
| 2026-05-05 08:50 | 45.77685 | 25.59771 | 3230 ft | 149 kts | 217° |
| 2026-05-05 08:51 | 45.76858 | 25.58901 | 3040 ft | 147 kts | 217° |
| 2026-05-05 08:51 | 45.76034 | 25.58034 | 2849 ft | 147 kts | 217° |
| 2026-05-05 08:51 | 45.75209 | 25.57167 | 2647 ft | 147 kts | 216° |
| 2026-05-05 08:51 | 45.74395 | 25.56311 | 2465 ft | 147 kts | 216° |
| 2026-05-05 08:52 | 45.73569 | 25.55443 | 2246 ft | 147 kts | 217° |
| 2026-05-05 08:52 | 45.72749 | 25.54567 | 2046 ft | 147 kts | 216° |
| 2026-05-05 08:52 | 45.71921 | 25.53714 | 1857 ft | 147 kts | 217° |
| 2026-05-05 08:52 | 45.71122 | 25.52875 | 1769 ft | 126 kts | 216° |
| 2026-05-05 08:53 | 45.70551 | 25.52285 | 1768 ft | 77 kts | 216° |
| 2026-05-05 08:53 | 45.70216 | 25.51927 | 1774 ft | 44 kts | 216° |
| 2026-05-05 08:53 | 45.70033 | 25.51736 | 1771 ft | 23 kts | 216° |
| 2026-05-05 08:53 | 45.69901 | 25.51598 | 1772 ft | 24 kts | 216° |
| 2026-05-05 08:54 | 45.69784 | 25.51479 | 1772 ft | 15 kts | 217° |
| 2026-05-05 08:54 | 45.69700 | 25.51390 | 1770 ft | 15 kts | 216° |
| 2026-05-05 08:54 | 45.69632 | 25.51318 | 1773 ft | 6 kts | 216° |
| 2026-05-05 08:54 | 45.69593 | 25.51324 | 1774 ft | 6 kts | 144° |
| 2026-05-05 08:55 | 45.69564 | 25.51381 | 1773 ft | 9 kts | 124° |
| 2026-05-05 08:55 | 45.69525 | 25.51460 | 1772 ft | 11 kts | 120° |
| 2026-05-05 08:55 | 45.69498 | 25.51526 | 1772 ft | 2 kts | 124° |
| 2026-05-05 08:55 | 45.69485 | 25.51551 | 1771 ft | 4 kts | 124° |
| 2026-05-05 08:56 | 45.69464 | 25.51596 | 1771 ft | 5 kts | 124° |
| 2026-05-05 08:56 | 45.69457 | 25.51610 | 1772 ft | 1 kts | 125° |
| 2026-05-05 08:56 | 45.69456 | 25.51611 | 1772 ft | 0 kts | 125° |